Albion, Pennsylvania
Current Conditions -  °F | °C
As of 6:51 PM on Monday 24 Nov 2014 (Local Time) from KERI Reporting Station
Few Clouds Few Clouds  
Wind Chill: 41°   Ceiling: Unl
Heat Index: 46°   Visibility: 10mi
Dew Point: 36°   Wind: 10mph
Humidity: 68%   Direction: 250°WSW
Pressure: 29.59"   Gusts: 21mph
Location:  41.89°N, 80.36°W
Report Text: KERI 242351Z 25009G18KT 10SM FEW043 08/02 A2959 RMK AO2 SLP022 60010 T00780022 10189 20078 51068
Loading
Personal Weather Stations






























Interactive Weather Map New forecast layout! Learn more

10-Day Weather Forecast

Advertisements
Track Severe Weather on mobile